Mountain Village, Alaska
Current Conditions -  °F | °C
As of 6:56 AM on Saturday 25 Oct 2014 (Local Time) from PAMO Reporting Station
Broken Clouds Broken Clouds  
Wind Chill: -7°   Ceiling: 300
Heat Index:   Visibility: 9mi
Dew Point:   Wind: 20mph
Humidity: 100%   Direction: 160°SSE
Pressure: 29.74"   Gusts: NA
Location:  62.09°N, 163.73°W
Report Text: PAMO 251456Z AUTO 16017KT 9SM BKN003 00/00 A2974 RMK AO2 TSNO 58019 T00000000 CIG 001V006 SLP958 $
Loading
Personal Weather Stations






























Interactive Weather Map
Tropical Storm Tracking
New forecast layout! Learn more

10-Day Weather Forecast

Advertisements
Track Severe Weather on mobile